Time;durP1;ratioP1;P1;durP2;ratioP2;P2;SDS_P1;SDS_P2;PMS_P1;PMS_P2;Temp;Humidity;BMP_temperature;BMP_pressure;BME280_temperature;BME280_humidity;BME280_pressure;Samples;Min_cycle;Max_cycle;Signal;HPM_P1;HPM_P2
2023/06/10 00:02:08;;;;;;;3.42;3.13;;;;;;;;;;5052243;28;20208;-79
2023/06/10 00:04:37;;;;;;;3.42;2.95;;;;;;;;;;5049221;28;20305;-79
2023/06/10 00:07:08;;;;;;;2.85;2.65;;;;;;;;;;5044510;28;20225;-79
2023/06/10 00:09:36;;;;;;;3.30;3.00;;;;;;;;;;5051986;28;20208;-79
2023/06/10 00:12:04;;;;;;;3.00;2.80;;;;;;;;;;5051057;28;20579;-79
2023/06/10 00:14:32;;;;;;;2.40;2.30;;;;;;;;;;5050255;28;20211;-79
2023/06/10 00:17:01;;;;;;;2.88;2.53;;;;;;;;;;5051539;28;20228;-79
2023/06/10 00:19:29;;;;;;;2.90;2.60;;;;;;;;;;5050010;28;20313;-79
2023/06/10 00:21:57;;;;;;;3.15;2.90;;;;;;;;;;5048866;28;20202;-79
2023/06/10 00:24:25;;;;;;;2.90;2.70;;;;;;;;;;5051262;28;20197;-78
2023/06/10 00:26:52;;;;;;;2.85;2.65;;;;;;;;;;5050125;28;20316;-79
2023/06/10 00:29:20;;;;;;;3.03;2.83;;;;;;;;;;5050839;28;20574;-78
2023/06/10 00:31:48;;;;;;;3.88;3.58;;;;;;;;;;5051611;28;20247;-78
2023/06/10 00:34:17;;;;;;;2.97;2.78;;;;;;;;;;5050712;28;20201;-79
2023/06/10 00:36:44;;;;;;;2.85;2.65;;;;;;;;;;5043811;28;20213;-78
2023/06/10 00:39:12;;;;;;;3.58;2.72;;;;;;;;;;5049833;28;20614;-79
2023/06/10 00:41:39;;;;;;;2.90;2.58;;;;;;;;;;5048553;28;20208;-78
2023/06/10 00:44:06;;;;;;;2.25;2.08;;;;;;;;;;5049930;28;20844;-79
2023/06/10 00:46:34;;;;;;;2.65;2.45;;;;;;;;;;5050225;28;20240;-79
2023/06/10 00:49:02;;;;;;;2.67;2.47;;;;;;;;;;5049483;28;20202;-79
2023/06/10 00:51:30;;;;;;;2.60;2.00;;;;;;;;;;5051283;28;20202;-78
2023/06/10 00:53:58;;;;;;;2.25;2.08;;;;;;;;;;5053987;28;20202;-79
2023/06/10 00:56:25;;;;;;;2.97;2.45;;;;;;;;;;5053272;28;20217;-79
2023/06/10 00:58:53;;;;;;;2.03;1.88;;;;;;;;;;5052209;28;20253;-79
2023/06/10 01:01:20;;;;;;;2.40;2.20;;;;;;;;;;5058355;28;20232;-79
2023/06/10 01:03:48;;;;;;;2.53;2.33;;;;;;;;;;5068796;28;20640;-79
2023/06/10 01:06:26;;;;;;;3.13;2.70;;;;;;;;;;5059865;28;20227;-79
2023/06/10 01:09:01;;;;;;;2.78;2.58;;;;;;;;;;5051191;28;20697;-80
2023/06/10 01:11:35;;;;;;;3.42;2.85;;;;;;;;;;5046022;28;20308;-80
2023/06/10 01:14:02;;;;;;;2.35;2.20;;;;;;;;;;5053141;28;20674;-79
2023/06/10 01:16:30;;;;;;;3.40;3.10;;;;;;;;;;5055648;28;20210;-79
2023/06/10 01:18:57;;;;;;;3.13;2.78;;;;;;;;;;5054945;28;20217;-80
2023/06/10 01:21:26;;;;;;;3.45;2.45;;;;;;;;;;5052570;28;20197;-79
2023/06/10 01:23:57;;;;;;;2.63;2.42;;;;;;;;;;5055131;28;20210;-80
2023/06/10 01:26:29;;;;;;;3.05;2.75;;;;;;;;;;5053498;28;20214;-79
2023/06/10 01:29:05;;;;;;;3.20;2.67;;;;;;;;;;5054241;28;20252;-79
2023/06/10 01:31:38;;;;;;;3.42;2.65;;;;;;;;;;5052210;28;20626;-80
2023/06/10 01:34:10;;;;;;;2.80;2.60;;;;;;;;;;5053030;28;20259;-78
2023/06/10 01:36:40;;;;;;;3.30;2.55;;;;;;;;;;5054432;28;20217;-80
2023/06/10 01:39:07;;;;;;;2.85;2.63;;;;;;;;;;5055058;28;20275;-80
2023/06/10 01:41:36;;;;;;;2.28;2.13;;;;;;;;;;5052897;28;20315;-79
2023/06/10 01:44:03;;;;;;;3.00;2.50;;;;;;;;;;5046189;28;20592;-78
2023/06/10 01:46:31;;;;;;;3.08;2.83;;;;;;;;;;5052892;28;20228;-79
2023/06/10 01:48:58;;;;;;;3.05;2.40;;;;;;;;;;5053294;28;20208;-80
2023/06/10 01:51:26;;;;;;;2.70;2.50;;;;;;;;;;5045513;28;20745;-78
2023/06/10 01:53:54;;;;;;;2.30;2.20;;;;;;;;;;5054659;28;20216;-79
2023/06/10 01:56:22;;;;;;;2.55;2.35;;;;;;;;;;5053359;28;20218;-79
2023/06/10 01:58:49;;;;;;;3.00;2.72;;;;;;;;;;5047737;28;20222;-79
2023/06/10 02:01:17;;;;;;;2.53;2.30;;;;;;;;;;5051918;28;20216;-79
2023/06/10 02:03:44;;;;;;;2.25;2.05;;;;;;;;;;5054433;28;20194;-80
2023/06/10 02:06:12;;;;;;;3.17;2.88;;;;;;;;;;5051489;28;20582;-79
2023/06/10 02:08:39;;;;;;;2.88;2.30;;;;;;;;;;5045158;28;20201;-79
2023/06/10 02:11:08;;;;;;;2.70;2.50;;;;;;;;;;5047087;28;20206;-79
2023/06/10 02:13:35;;;;;;;2.67;2.47;;;;;;;;;;5051714;28;20289;-80
2023/06/10 02:16:03;;;;;;;2.67;2.47;;;;;;;;;;5051507;28;20206;-80
2023/06/10 02:18:30;;;;;;;2.58;2.38;;;;;;;;;;5054196;28;20277;-78
2023/06/10 02:20:57;;;;;;;2.70;2.50;;;;;;;;;;5053195;28;20208;-79
2023/06/10 02:23:25;;;;;;;2.25;2.10;;;;;;;;;;5053973;28;20578;-79
2023/06/10 02:25:52;;;;;;;2.53;2.33;;;;;;;;;;5043688;28;20292;-80
2023/06/10 02:28:21;;;;;;;4.78;3.20;;;;;;;;;;5053847;28;20317;-79
2023/06/10 02:30:49;;;;;;;2.75;2.55;;;;;;;;;;5053134;28;20664;-78
2023/06/10 02:33:17;;;;;;;3.38;2.38;;;;;;;;;;5053472;28;20209;-78
2023/06/10 02:35:45;;;;;;;2.97;2.78;;;;;;;;;;5049945;28;20488;-78
2023/06/10 02:38:12;;;;;;;2.97;2.65;;;;;;;;;;5044379;28;20253;-79
2023/06/10 02:40:39;;;;;;;2.97;2.67;;;;;;;;;;5052626;28;20217;-79
2023/06/10 02:43:07;;;;;;;3.10;2.88;;;;;;;;;;5053422;28;20583;-79
2023/06/10 02:45:36;;;;;;;3.17;2.88;;;;;;;;;;5052489;28;20201;-79
2023/06/10 02:48:03;;;;;;;2.88;2.67;;;;;;;;;;5045129;28;20229;-79
2023/06/10 02:50:31;;;;;;;2.90;2.70;;;;;;;;;;5050651;28;20193;-78
2023/06/10 02:52:58;;;;;;;2.72;2.53;;;;;;;;;;5052209;28;20280;-78
2023/06/10 02:55:26;;;;;;;2.10;1.92;;;;;;;;;;5051579;28;20200;-78
2023/06/10 02:57:54;;;;;;;2.15;1.92;;;;;;;;;;5050017;28;20228;-77
2023/06/10 03:00:22;;;;;;;2.35;2.17;;;;;;;;;;5050445;28;20222;-77
2023/06/10 03:02:51;;;;;;;2.75;2.55;;;;;;;;;;5051623;28;20201;-78
2023/06/10 03:05:18;;;;;;;2.50;2.30;;;;;;;;;;5050173;28;20200;-78
2023/06/10 03:07:47;;;;;;;2.40;2.20;;;;;;;;;;5042049;28;20236;-78
2023/06/10 03:10:14;;;;;;;3.28;2.60;;;;;;;;;;5054839;28;20202;-77
2023/06/10 03:12:42;;;;;;;3.20;2.90;;;;;;;;;;5054762;28;20205;-78
2023/06/10 03:15:10;;;;;;;3.08;2.72;;;;;;;;;;5048578;28;20220;-78
2023/06/10 03:17:37;;;;;;;3.63;3.03;;;;;;;;;;5050961;28;20232;-78
2023/06/10 03:20:10;;;;;;;2.58;2.38;;;;;;;;;;5049043;28;20225;-78
2023/06/10 03:22:37;;;;;;;3.20;2.90;;;;;;;;;;5050692;28;20206;-78
2023/06/10 03:25:07;;;;;;;2.25;2.05;;;;;;;;;;5045370;28;20256;-78
2023/06/10 03:27:35;;;;;;;2.53;2.33;;;;;;;;;;5031999;28;20592;-78
2023/06/10 03:30:03;;;;;;;4.93;2.70;;;;;;;;;;5042517;28;20202;-78
2023/06/10 03:32:30;;;;;;;2.63;2.40;;;;;;;;;;5049012;28;20213;-77
2023/06/10 03:34:58;;;;;;;3.92;2.72;;;;;;;;;;5051057;28;20208;-78
2023/06/10 03:37:27;;;;;;;2.90;2.25;;;;;;;;;;5050930;28;20223;-78
2023/06/10 03:39:54;;;;;;;2.95;2.75;;;;;;;;;;5050897;28;20226;-78
2023/06/10 03:42:22;;;;;;;3.17;2.47;;;;;;;;;;5049224;28;20208;-78
2023/06/10 03:44:49;;;;;;;2.58;2.38;;;;;;;;;;5049664;28;20208;-78
2023/06/10 03:47:16;;;;;;;4.35;2.85;;;;;;;;;;5049854;28;20312;-80
2023/06/10 03:49:44;;;;;;;2.60;2.40;;;;;;;;;;5051282;28;20209;-78
2023/06/10 03:52:11;;;;;;;4.47;3.22;;;;;;;;;;5049104;28;20208;-78
2023/06/10 03:54:40;;;;;;;3.42;2.25;;;;;;;;;;5047794;28;20218;-77
2023/06/10 03:57:07;;;;;;;2.65;2.45;;;;;;;;;;5049017;28;20223;-78
2023/06/10 03:59:35;;;;;;;3.15;2.35;;;;;;;;;;5049525;28;20198;-78
2023/06/10 04:02:04;;;;;;;2.22;1.90;;;;;;;;;;5051285;28;20197;-77
2023/06/10 04:04:32;;;;;;;4.53;2.90;;;;;;;;;;5048147;28;20201;-77
2023/06/10 04:06:59;;;;;;;2.47;2.28;;;;;;;;;;5040301;28;20574;-78
2023/06/10 04:09:27;;;;;;;3.85;2.55;;;;;;;;;;5050757;28;20208;-77
2023/06/10 04:11:55;;;;;;;2.55;2.35;;;;;;;;;;5050437;28;20200;-78
2023/06/10 04:14:23;;;;;;;4.43;2.72;;;;;;;;;;5048375;28;20280;-77
2023/06/10 04:16:51;;;;;;;2.58;2.38;;;;;;;;;;5049028;28;20228;-77
2023/06/10 04:19:19;;;;;;;3.33;2.60;;;;;;;;;;5050655;28;20208;-78
2023/06/10 04:21:47;;;;;;;2.47;2.25;;;;;;;;;;5049513;28;20252;-77
2023/06/10 04:24:14;;;;;;;2.03;1.92;;;;;;;;;;5050590;28;20206;-77
2023/06/10 04:26:42;;;;;;;2.00;1.90;;;;;;;;;;5050541;28;20225;-78
2023/06/10 04:29:11;;;;;;;2.80;2.47;;;;;;;;;;5052970;28;20198;-77
2023/06/10 04:31:38;;;;;;;2.67;2.47;;;;;;;;;;5052690;28;20193;-79
2023/06/10 04:34:07;;;;;;;2.60;2.40;;;;;;;;;;5047517;28;20209;-78
2023/06/10 04:36:34;;;;;;;2.63;2.42;;;;;;;;;;5038602;28;20228;-78
2023/06/10 04:39:02;;;;;;;2.95;2.65;;;;;;;;;;5053967;28;20202;-78
2023/06/10 04:41:30;;;;;;;2.67;2.47;;;;;;;;;;5053322;28;20226;-77
2023/06/10 04:43:57;;;;;;;3.42;2.45;;;;;;;;;;5047487;28;20206;-78
2023/06/10 04:46:26;;;;;;;2.92;2.63;;;;;;;;;;5078617;22;20343;-76
2023/06/10 04:48:54;;;;;;;2.58;2.38;;;;;;;;;;5073048;28;20229;-79
2023/06/10 04:51:22;;;;;;;5.00;3.65;;;;;;;;;;5075362;28;20279;-80
2023/06/10 04:53:49;;;;;;;3.30;3.00;;;;;;;;;;5088146;28;20196;-78
2023/06/10 04:56:17;;;;;;;6.03;4.68;;;;;;;;;;5089472;28;20568;-77
2023/06/10 04:58:44;;;;;;;3.25;2.95;;;;;;;;;;5075541;28;20221;-77
2023/06/10 05:01:12;;;;;;;3.47;2.72;;;;;;;;;;5074270;28;20223;-79
2023/06/10 05:03:40;;;;;;;3.17;2.88;;;;;;;;;;5083986;28;20299;-78
2023/06/10 05:06:09;;;;;;;3.15;2.80;;;;;;;;;;5079955;28;20205;-77
2023/06/10 05:08:37;;;;;;;3.38;2.92;;;;;;;;;;5078216;28;20232;-78
2023/06/10 05:11:04;;;;;;;2.85;2.65;;;;;;;;;;5073322;28;20205;-78
2023/06/10 05:13:32;;;;;;;3.90;2.65;;;;;;;;;;5071398;28;20192;-78
2023/06/10 05:15:59;;;;;;;3.33;2.92;;;;;;;;;;5072701;28;20256;-78
2023/06/10 05:18:27;;;;;;;3.28;2.97;;;;;;;;;;5074607;28;20312;-77
2023/06/10 05:20:56;;;;;;;3.67;2.47;;;;;;;;;;5074809;28;20225;-77
2023/06/10 05:23:23;;;;;;;3.00;2.70;;;;;;;;;;5076803;28;20197;-78
2023/06/10 05:25:51;;;;;;;2.80;2.60;;;;;;;;;;5075300;28;20575;-79
2023/06/10 05:28:19;;;;;;;2.22;2.13;;;;;;;;;;5075044;28;20274;-77
2023/06/10 05:30:47;;;;;;;2.30;2.20;;;;;;;;;;5075122;28;20258;-77
2023/06/10 05:33:14;;;;;;;2.90;2.42;;;;;;;;;;5072266;28;20197;-78
2023/06/10 05:35:42;;;;;;;2.95;2.70;;;;;;;;;;5067050;28;20215;-76
2023/06/10 05:38:10;;;;;;;3.42;2.40;;;;;;;;;;5067991;28;20214;-77
2023/06/10 05:40:38;;;;;;;2.35;2.05;;;;;;;;;;5072389;28;20197;-78
2023/06/10 05:43:05;;;;;;;2.15;1.92;;;;;;;;;;5074870;28;20280;-79
2023/06/10 05:45:33;;;;;;;2.53;2.22;;;;;;;;;;5073709;28;20193;-81
2023/06/10 05:48:00;;;;;;;2.35;2.15;;;;;;;;;;5077526;28;20274;-78
2023/06/10 05:50:28;;;;;;;1.90;1.80;;;;;;;;;;5077582;28;20208;-79
2023/06/10 05:52:55;;;;;;;2.55;2.35;;;;;;;;;;5084827;28;20193;-79
2023/06/10 05:55:24;;;;;;;2.75;2.28;;;;;;;;;;5085033;28;20216;-80
2023/06/10 05:58:00;;;;;;;2.70;2.50;;;;;;;;;;5085932;28;20228;-81
2023/06/10 06:00:28;;;;;;;2.30;2.20;;;;;;;;;;5079738;28;20212;-81
2023/06/10 06:02:57;;;;;;;2.63;2.42;;;;;;;;;;5080291;28;20216;-81
2023/06/10 06:05:24;;;;;;;2.97;2.78;;;;;;;;;;5082267;28;20197;-81
2023/06/10 06:07:52;;;;;;;3.00;2.65;;;;;;;;;;5086096;28;20492;-81
2023/06/10 06:10:19;;;;;;;2.78;2.35;;;;;;;;;;5074361;28;20221;-81
2023/06/10 06:12:48;;;;;;;2.78;2.45;;;;;;;;;;5080179;28;20281;-81
2023/06/10 06:15:16;;;;;;;3.65;2.83;;;;;;;;;;5080095;28;20264;-81
2023/06/10 06:17:43;;;;;;;2.70;2.50;;;;;;;;;;5078702;28;20303;-81
2023/06/10 06:20:11;;;;;;;2.60;2.40;;;;;;;;;;5074476;28;20208;-81
2023/06/10 06:22:39;;;;;;;3.22;2.28;;;;;;;;;;5075315;28;20227;-81
2023/06/10 06:25:07;;;;;;;3.60;2.28;;;;;;;;;;5080056;28;20661;-82
2023/06/10 06:27:35;;;;;;;3.15;2.47;;;;;;;;;;5074618;28;20232;-80
2023/06/10 06:30:05;;;;;;;2.25;2.13;;;;;;;;;;5078926;28;20205;-81
2023/06/10 06:32:32;;;;;;;2.28;2.10;;;;;;;;;;5066743;28;20215;-81
2023/06/10 06:35:00;;;;;;;4.13;2.45;;;;;;;;;;5061729;28;20292;-81
2023/06/10 06:37:27;;;;;;;2.92;2.72;;;;;;;;;;5076220;28;20606;-81
2023/06/10 06:39:55;;;;;;;3.08;2.88;;;;;;;;;;5076024;28;20284;-83
2023/06/10 06:42:23;;;;;;;2.70;2.50;;;;;;;;;;5076116;28;20308;-81
2023/06/10 06:44:50;;;;;;;2.42;2.22;;;;;;;;;;5075257;28;20296;-81
2023/06/10 06:47:19;;;;;;;3.38;2.60;;;;;;;;;;5078131;28;20224;-81
2023/06/10 06:49:47;;;;;;;4.18;2.75;;;;;;;;;;5080364;28;20231;-81
2023/06/10 06:52:15;;;;;;;3.13;2.30;;;;;;;;;;5075089;28;20696;-80
2023/06/10 06:54:42;;;;;;;2.47;2.28;;;;;;;;;;5061807;28;20209;-82
2023/06/10 06:57:10;;;;;;;3.40;3.00;;;;;;;;;;5067543;28;20615;-81
2023/06/10 06:59:38;;;;;;;2.47;2.28;;;;;;;;;;5073122;28;20197;-81
2023/06/10 07:02:06;;;;;;;2.40;2.20;;;;;;;;;;5075076;28;20301;-81
2023/06/10 07:04:34;;;;;;;3.03;2.70;;;;;;;;;;5072900;28;20201;-79
2023/06/10 07:07:02;;;;;;;3.08;2.78;;;;;;;;;;5071224;28;20223;-82
2023/06/10 07:09:29;;;;;;;2.55;2.35;;;;;;;;;;5070673;28;20610;-81
2023/06/10 07:11:57;;;;;;;3.25;2.92;;;;;;;;;;5080420;28;20658;-81
2023/06/10 07:14:24;;;;;;;2.83;2.17;;;;;;;;;;5074142;28;20284;-81
2023/06/10 07:16:52;;;;;;;2.90;2.70;;;;;;;;;;5072500;28;20311;-82
2023/06/10 07:19:20;;;;;;;3.25;3.05;;;;;;;;;;5077269;28;20193;-81
2023/06/10 07:21:49;;;;;;;2.70;2.50;;;;;;;;;;5076988;28;20207;-82
2023/06/10 07:24:16;;;;;;;2.47;2.28;;;;;;;;;;5082856;28;20223;-81
2023/06/10 07:26:44;;;;;;;3.38;3.17;;;;;;;;;;5075863;28;20681;-82
2023/06/10 07:29:12;;;;;;;2.30;2.10;;;;;;;;;;5068942;28;20203;-81
2023/06/10 07:31:41;;;;;;;2.78;2.58;;;;;;;;;;5075073;28;20246;-82
2023/06/10 07:34:09;;;;;;;2.83;2.63;;;;;;;;;;5076447;28;20342;-82
2023/06/10 07:36:36;;;;;;;2.63;2.38;;;;;;;;;;5075104;28;20264;-81
2023/06/10 07:39:06;;;;;;;2.88;2.67;;;;;;;;;;5073386;28;20209;-82
2023/06/10 07:41:35;;;;;;;5.47;3.28;;;;;;;;;;5073746;28;20198;-81
2023/06/10 07:44:02;;;;;;;2.50;2.30;;;;;;;;;;5073908;28;20226;-80
2023/06/10 07:46:30;;;;;;;2.53;2.33;;;;;;;;;;5075556;28;20280;-81
2023/06/10 07:48:57;;;;;;;2.97;2.67;;;;;;;;;;5076752;28;20730;-82
2023/06/10 07:51:25;;;;;;;2.97;2.67;;;;;;;;;;5072764;28;20205;-80
2023/06/10 07:53:52;;;;;;;3.30;3.00;;;;;;;;;;5072361;28;20263;-81
2023/06/10 07:56:21;;;;;;;2.63;2.42;;;;;;;;;;5071332;28;20197;-81
2023/06/10 07:58:49;;;;;;;3.25;2.90;;;;;;;;;;5074627;28;20233;-81
2023/06/10 08:01:16;;;;;;;3.53;2.80;;;;;;;;;;5074884;28;20207;-82
2023/06/10 08:03:44;;;;;;;3.17;2.97;;;;;;;;;;5077025;28;20221;-81
2023/06/10 08:06:12;;;;;;;3.25;2.72;;;;;;;;;;5070162;28;20288;-81
2023/06/10 08:08:41;;;;;;;2.72;2.53;;;;;;;;;;5085904;28;20635;-81
2023/06/10 08:11:09;;;;;;;2.38;2.10;;;;;;;;;;5078462;28;20211;-81
2023/06/10 08:13:38;;;;;;;2.53;2.33;;;;;;;;;;5078545;28;20311;-81
2023/06/10 08:16:05;;;;;;;3.00;2.80;;;;;;;;;;5082183;28;20583;-80
2023/06/10 08:18:33;;;;;;;3.03;2.72;;;;;;;;;;5076795;28;20292;-81
2023/06/10 08:21:01;;;;;;;2.70;2.50;;;;;;;;;;5078674;28;20212;-81
2023/06/10 08:23:28;;;;;;;3.58;2.70;;;;;;;;;;5086392;28;20232;-81
2023/06/10 08:25:55;;;;;;;2.83;2.63;;;;;;;;;;5077689;28;20687;-80
2023/06/10 08:28:23;;;;;;;3.63;2.42;;;;;;;;;;5078186;28;20359;-80
2023/06/10 08:30:52;;;;;;;4.32;3.92;;;;;;;;;;5086382;28;20208;-81
2023/06/10 08:33:20;;;;;;;4.05;3.65;;;;;;;;;;5089404;28;20203;-80
2023/06/10 08:35:47;;;;;;;2.83;2.63;;;;;;;;;;5092138;28;20197;-80
2023/06/10 08:38:16;;;;;;;2.65;2.45;;;;;;;;;;5086246;28;20209;-80
2023/06/10 08:40:43;;;;;;;3.90;3.60;;;;;;;;;;5089747;28;20224;-81
2023/06/10 08:43:32;;;;;;;3.45;3.15;;;;;;;;;;5073675;28;20224;-81
2023/06/10 08:46:02;;;;;;;5.20;3.28;;;;;;;;;;5077790;28;20589;-81
2023/06/10 08:48:31;;;;;;;3.42;3.10;;;;;;;;;;5073039;28;20227;-81
2023/06/10 08:50:59;;;;;;;4.10;3.80;;;;;;;;;;5082384;28;20207;-81
2023/06/10 08:53:28;;;;;;;3.75;3.45;;;;;;;;;;5076460;28;20276;-81
2023/06/10 08:55:56;;;;;;;2.72;2.53;;;;;;;;;;5073440;28;20208;-81
2023/06/10 08:58:24;;;;;;;3.08;2.88;;;;;;;;;;5075168;28;20776;-82
2023/06/10 09:00:52;;;;;;;2.95;2.75;;;;;;;;;;5071839;28;20295;-81
2023/06/10 09:03:21;;;;;;;2.70;2.50;;;;;;;;;;5073796;28;20221;-81
2023/06/10 09:05:49;;;;;;;3.97;2.90;;;;;;;;;;5075795;28;20268;-81
2023/06/10 09:08:17;;;;;;;4.65;4.22;;;;;;;;;;5075028;28;20217;-81
2023/06/10 09:10:44;;;;;;;4.32;3.92;;;;;;;;;;5078889;28;20219;-81
2023/06/10 09:13:15;;;;;;;3.72;3.42;;;;;;;;;;5078935;28;20589;-79
2023/06/10 09:15:43;;;;;;;3.50;3.30;;;;;;;;;;5076550;28;20254;-79
2023/06/10 09:18:10;;;;;;;4.10;3.45;;;;;;;;;;5079484;28;20225;-81
2023/06/10 09:20:42;;;;;;;4.13;3.72;;;;;;;;;;5073386;28;20235;-80
2023/06/10 09:23:10;;;;;;;11.00;3.90;;;;;;;;;;5070770;28;20221;-80
2023/06/10 09:25:39;;;;;;;3.70;3.40;;;;;;;;;;5076351;28;20296;-79
2023/06/10 09:28:13;;;;;;;3.15;2.90;;;;;;;;;;5077184;28;20307;-80
2023/06/10 09:30:40;;;;;;;3.35;3.08;;;;;;;;;;5073673;28;20203;-79
2023/06/10 09:33:13;;;;;;;3.60;3.28;;;;;;;;;;5080172;28;20193;-80
2023/06/10 09:35:48;;;;;;;3.53;3.22;;;;;;;;;;5075741;28;20664;-79
2023/06/10 09:38:16;;;;;;;5.45;4.43;;;;;;;;;;5069988;28;20216;-79
2023/06/10 09:40:51;;;;;;;4.50;4.10;;;;;;;;;;5084339;28;20205;-81
2023/06/10 09:43:19;;;;;;;3.53;3.22;;;;;;;;;;5069710;28;20696;-80
2023/06/10 09:45:50;;;;;;;3.47;3.28;;;;;;;;;;5071087;28;20640;-79
2023/06/10 09:48:17;;;;;;;3.05;2.85;;;;;;;;;;5072894;28;20746;-79
2023/06/10 09:50:47;;;;;;;3.60;3.30;;;;;;;;;;5082229;28;20197;-81
2023/06/10 09:53:14;;;;;;;4.25;3.83;;;;;;;;;;5072794;28;20204;-80
2023/06/10 09:55:43;;;;;;;8.77;4.10;;;;;;;;;;5073695;28;20221;-80
2023/06/10 09:58:10;;;;;;;3.47;3.10;;;;;;;;;;5075545;28;20224;-79
2023/06/10 10:00:38;;;;;;;3.40;3.10;;;;;;;;;;5087149;28;20196;-79
2023/06/10 10:03:06;;;;;;;3.50;3.25;;;;;;;;;;5086945;28;20287;-81
2023/06/10 10:05:34;;;;;;;3.42;3.22;;;;;;;;;;5076632;28;20618;-80
2023/06/10 10:08:02;;;;;;;3.83;3.53;;;;;;;;;;5073781;28;20231;-80
2023/06/10 10:10:30;;;;;;;3.40;3.20;;;;;;;;;;5084475;28;20203;-80
2023/06/10 10:12:58;;;;;;;3.85;3.55;;;;;;;;;;5089942;28;20207;-80
2023/06/10 10:15:29;;;;;;;3.10;2.90;;;;;;;;;;5074011;28;20687;-80
2023/06/10 10:18:01;;;;;;;4.38;3.97;;;;;;;;;;5074654;28;20225;-80
2023/06/10 10:20:34;;;;;;;3.70;3.38;;;;;;;;;;5085194;28;20197;-81
2023/06/10 10:23:05;;;;;;;3.17;2.97;;;;;;;;;;5082371;28;20196;-80
2023/06/10 10:25:39;;;;;;;3.72;3.47;;;;;;;;;;5074366;28;20235;-81
2023/06/10 10:28:11;;;;;;;3.80;3.58;;;;;;;;;;5073282;28;20225;-80
2023/06/10 10:30:42;;;;;;;5.80;4.35;;;;;;;;;;5075920;28;20223;-78
2023/06/10 10:33:17;;;;;;;4.43;4.03;;;;;;;;;;5066257;28;20217;-81
2023/06/10 10:35:45;;;;;;;4.40;3.65;;;;;;;;;;5062914;28;20215;-80
2023/06/10 10:38:14;;;;;;;4.38;3.97;;;;;;;;;;5064654;28;20224;-80
2023/06/10 10:40:43;;;;;;;3.70;3.50;;;;;;;;;;5080851;28;20205;-82
2023/06/10 10:43:11;;;;;;;4.40;4.10;;;;;;;;;;5070610;28;20720;-81
2023/06/10 10:45:38;;;;;;;3.70;3.40;;;;;;;;;;5084029;28;20208;-80
2023/06/10 10:48:11;;;;;;;3.55;3.25;;;;;;;;;;5096210;22;20228;-78
2023/06/10 10:50:40;;;;;;;3.42;2.80;;;;;;;;;;5072945;28;20211;-79
2023/06/10 10:53:08;;;;;;;3.55;3.28;;;;;;;;;;5064862;28;20193;-78
2023/06/10 10:55:37;;;;;;;4.18;3.78;;;;;;;;;;5072098;28;20196;-78
2023/06/10 10:58:09;;;;;;;4.65;3.70;;;;;;;;;;5068833;28;20321;-79
2023/06/10 11:00:38;;;;;;;3.00;2.80;;;;;;;;;;5050673;28;20212;-79
2023/06/10 11:03:09;;;;;;;3.75;3.45;;;;;;;;;;5048325;28;20585;-78
2023/06/10 11:05:44;;;;;;;3.75;3.45;;;;;;;;;;5062117;28;20347;-79
2023/06/10 11:08:12;;;;;;;3.65;3.33;;;;;;;;;;5051244;28;20220;-78
2023/06/10 11:10:43;;;;;;;5.95;4.57;;;;;;;;;;5053209;28;20231;-80
2023/06/10 11:13:13;;;;;;;4.07;3.78;;;;;;;;;;5046925;28;20200;-78
2023/06/10 11:15:46;;;;;;;3.58;3.38;;;;;;;;;;5050118;28;20192;-80
2023/06/10 11:18:23;;;;;;;3.80;3.60;;;;;;;;;;5060615;28;20224;-78
2023/06/10 11:20:57;;;;;;;3.97;3.67;;;;;;;;;;5058807;28;20201;-79
2023/06/10 11:23:42;;;;;;;3.90;3.63;;;;;;;;;;5054457;28;20204;-78
2023/06/10 11:26:32;;;;;;;3.95;3.55;;;;;;;;;;5055691;28;20225;-78
2023/06/10 11:29:12;;;;;;;4.00;3.70;;;;;;;;;;5055416;28;20240;-83
2023/06/10 11:31:45;;;;;;;5.03;2.83;;;;;;;;;;5044859;28;20197;-82
2023/06/10 11:34:14;;;;;;;4.28;3.80;;;;;;;;;;5052844;28;20224;-80
2023/06/10 11:36:45;;;;;;;3.45;3.25;;;;;;;;;;5058785;28;20593;-81
2023/06/10 11:39:13;;;;;;;4.68;4.35;;;;;;;;;;5053252;28;20213;-79
2023/06/10 11:41:42;;;;;;;3.38;3.17;;;;;;;;;;5056628;28;20208;-79
2023/06/10 11:44:11;;;;;;;4.85;3.63;;;;;;;;;;5049238;28;20204;-81
2023/06/10 11:46:39;;;;;;;4.40;4.00;;;;;;;;;;5055334;28;20192;-81
2023/06/10 11:49:07;;;;;;;3.70;3.50;;;;;;;;;;5059305;28;20258;-79
2023/06/10 11:51:36;;;;;;;4.82;3.70;;;;;;;;;;5052168;28;20289;-80
2023/06/10 11:54:04;;;;;;;4.43;4.13;;;;;;;;;;5045160;28;20212;-80
2023/06/10 11:56:33;;;;;;;5.18;4.38;;;;;;;;;;5049411;28;20198;-80
2023/06/10 11:59:05;;;;;;;5.10;4.60;;;;;;;;;;5058174;28;20295;-81
2023/06/10 12:01:34;;;;;;;4.22;3.97;;;;;;;;;;5056039;28;20262;-79
2023/06/10 12:04:05;;;;;;;4.90;4.60;;;;;;;;;;5058594;28;20198;-80
2023/06/10 12:06:43;;;;;;;5.00;4.60;;;;;;;;;;5059766;28;20225;-80
2023/06/10 12:09:16;;;;;;;3.53;3.33;;;;;;;;;;5052047;28;20219;-79
2023/06/10 12:11:44;;;;;;;4.53;3.67;;;;;;;;;;5062037;28;20198;-80
2023/06/10 12:14:14;;;;;;;3.90;3.55;;;;;;;;;;5055827;28;20224;-80
2023/06/10 12:16:43;;;;;;;4.28;3.97;;;;;;;;;;5047523;28;20200;-80
2023/06/10 12:19:10;;;;;;;4.50;4.20;;;;;;;;;;5055853;28;20221;-80
2023/06/10 12:21:38;;;;;;;4.15;3.95;;;;;;;;;;5052881;28;20288;-80
2023/06/10 12:24:08;;;;;;;4.03;3.70;;;;;;;;;;5061987;28;20200;-80
2023/06/10 12:26:38;;;;;;;4.80;4.30;;;;;;;;;;5059937;28;20740;-80
2023/06/10 12:29:18;;;;;;;4.78;4.32;;;;;;;;;;5063547;28;20728;-80
2023/06/10 12:31:58;;;;;;;3.95;3.65;;;;;;;;;;5048911;28;20216;-80
2023/06/10 12:34:39;;;;;;;3.50;3.20;;;;;;;;;;5058928;28;20208;-79
2023/06/10 12:37:13;;;;;;;3.90;3.67;;;;;;;;;;5053775;28;20213;-80
2023/06/10 12:39:41;;;;;;;3.78;3.47;;;;;;;;;;5049500;28;22077;-80
2023/06/10 12:42:10;;;;;;;4.72;4.32;;;;;;;;;;5053517;28;20285;-80
2023/06/10 12:44:41;;;;;;;4.13;3.72;;;;;;;;;;5053675;28;20201;-79
2023/06/10 12:47:12;;;;;;;4.32;4.03;;;;;;;;;;5054484;28;20193;-79
2023/06/10 12:49:39;;;;;;;4.68;4.28;;;;;;;;;;5070282;28;20207;-80
2023/06/10 12:52:07;;;;;;;4.20;3.90;;;;;;;;;;5037507;28;20225;-79
2023/06/10 12:54:36;;;;;;;3.97;3.65;;;;;;;;;;5064273;28;20657;-80
2023/06/10 12:57:04;;;;;;;3.65;3.35;;;;;;;;;;5061033;28;20651;-79
2023/06/10 12:59:32;;;;;;;3.90;3.60;;;;;;;;;;5059357;28;20207;-80
2023/06/10 13:02:01;;;;;;;4.00;3.70;;;;;;;;;;5055178;28;20592;-79
2023/06/10 13:04:29;;;;;;;4.28;3.97;;;;;;;;;;5057091;28;20197;-80
2023/06/10 13:06:56;;;;;;;5.32;3.95;;;;;;;;;;5062542;28;20224;-80
2023/06/10 13:09:24;;;;;;;4.60;4.30;;;;;;;;;;5053660;28;20208;-80
2023/06/10 13:11:52;;;;;;;4.05;3.75;;;;;;;;;;5048889;28;20288;-79
2023/06/10 13:14:20;;;;;;;3.95;3.65;;;;;;;;;;5056788;28;20210;-80
2023/06/10 13:16:47;;;;;;;4.30;3.88;;;;;;;;;;5056393;28;20255;-80
2023/06/10 13:19:16;;;;;;;3.45;3.17;;;;;;;;;;5061862;28;20989;-79
2023/06/10 13:21:43;;;;;;;4.45;4.15;;;;;;;;;;5055265;28;20636;-80
2023/06/10 13:24:11;;;;;;;3.88;3.53;;;;;;;;;;5055650;28;20193;-78
2023/06/10 13:26:38;;;;;;;4.00;3.60;;;;;;;;;;5056983;28;20260;-80
2023/06/10 13:29:07;;;;;;;3.60;3.30;;;;;;;;;;5055496;28;20309;-79
2023/06/10 13:31:35;;;;;;;4.40;3.70;;;;;;;;;;5057879;28;20201;-79
2023/06/10 13:34:02;;;;;;;5.60;4.22;;;;;;;;;;5056305;28;20703;-80
2023/06/10 13:36:31;;;;;;;3.67;3.42;;;;;;;;;;5056523;28;20204;-80
2023/06/10 13:38:58;;;;;;;4.20;3.33;;;;;;;;;;5055103;28;20231;-80
2023/06/10 13:41:27;;;;;;;4.05;3.75;;;;;;;;;;5056737;28;20197;-80
2023/06/10 13:43:54;;;;;;;3.05;2.85;;;;;;;;;;5056723;28;20577;-79
2023/06/10 13:46:23;;;;;;;4.03;3.25;;;;;;;;;;5056379;28;20225;-80
2023/06/10 13:48:50;;;;;;;7.82;3.35;;;;;;;;;;5056689;28;20221;-79
2023/06/10 13:51:18;;;;;;;2.97;2.78;;;;;;;;;;5056577;28;20204;-80
2023/06/10 13:53:46;;;;;;;3.55;3.25;;;;;;;;;;5055901;28;20238;-79
2023/06/10 13:56:14;;;;;;;3.08;2.88;;;;;;;;;;5057816;28;20666;-78
2023/06/10 13:58:42;;;;;;;3.10;2.80;;;;;;;;;;5055996;28;20248;-79
2023/06/10 14:01:10;;;;;;;5.10;3.83;;;;;;;;;;5057474;28;20202;-79
2023/06/10 14:03:37;;;;;;;4.13;3.83;;;;;;;;;;5057191;28;20198;-80
2023/06/10 14:06:05;;;;;;;4.10;3.80;;;;;;;;;;5056203;28;20227;-80
2023/06/10 14:08:32;;;;;;;4.47;4.07;;;;;;;;;;5056487;28;20223;-80
2023/06/10 14:11:01;;;;;;;4.05;3.75;;;;;;;;;;5056851;28;20202;-80
2023/06/10 14:13:29;;;;;;;3.92;3.72;;;;;;;;;;5055472;28;20197;-79
2023/06/10 14:15:57;;;;;;;3.50;3.30;;;;;;;;;;5056845;28;20263;-80
2023/06/10 14:18:25;;;;;;;4.20;3.90;;;;;;;;;;5056315;28;20221;-79
2023/06/10 14:20:52;;;;;;;7.38;3.95;;;;;;;;;;5057834;28;20276;-80
2023/06/10 14:23:19;;;;;;;3.75;3.45;;;;;;;;;;5055949;28;20197;-79
2023/06/10 14:25:47;;;;;;;4.13;3.72;;;;;;;;;;5056742;28;20265;-79
2023/06/10 14:28:16;;;;;;;3.88;3.60;;;;;;;;;;5055495;28;20219;-80
2023/06/10 14:30:43;;;;;;;4.13;3.83;;;;;;;;;;5048971;28;20216;-79
2023/06/10 14:33:11;;;;;;;4.22;3.92;;;;;;;;;;5056248;28;20677;-80
2023/06/10 14:35:38;;;;;;;4.65;3.33;;;;;;;;;;5056746;28;20272;-79
2023/06/10 14:38:05;;;;;;;10.25;3.53;;;;;;;;;;5055128;28;20589;-81
2023/06/10 14:40:33;;;;;;;3.72;3.53;;;;;;;;;;5055133;28;20667;-79
2023/06/10 14:43:01;;;;;;;3.67;3.20;;;;;;;;;;5054049;28;20202;-79
2023/06/10 14:45:30;;;;;;;4.35;4.05;;;;;;;;;;5056217;28;20233;-78
2023/06/10 14:47:57;;;;;;;3.78;3.47;;;;;;;;;;5056194;28;20252;-79
2023/06/10 14:50:25;;;;;;;3.70;3.40;;;;;;;;;;5054843;28;20202;-79
2023/06/10 14:52:52;;;;;;;4.03;3.72;;;;;;;;;;5056157;28;20243;-80